Time;durP1;ratioP1;P1;durP2;ratioP2;P2;SDS_P1;SDS_P2;PMS_P1;PMS_P2;Temp;Humidity;BMP_temperature;BMP_pressure;BME280_temperature;BME280_humidity;BME280_pressure;Samples;Min_cycle;Max_cycle;Signal;HPM_P1;HPM_P2
2021/12/15 00:01:12;;;;;;;22.45;15.63;;;6.90;83.30;;;6.04;69.89;95967.88;5032104;28;20230;-78
2021/12/15 00:03:39;;;;;;;21.23;15.30;;;6.90;83.30;;;6.04;70.07;95973.94;5032148;28;20216;-80
2021/12/15 00:06:18;;;;;;;20.95;13.98;;;6.90;83.30;;;6.04;69.59;95971.34;5032027;28;20693;-79
2021/12/15 00:08:50;;;;;;;17.40;12.82;;;6.90;83.30;;;6.04;69.96;95963.53;5067500;28;20223;-80
2021/12/15 00:11:22;;;;;;;19.70;14.35;;;6.90;83.30;;;6.00;69.94;95953.50;5067023;28;20267;-80
2021/12/15 00:13:52;;;;;;;19.65;13.93;;;6.90;83.40;;;6.05;69.92;95964.31;5053211;28;20275;-79
2021/12/15 00:16:19;;;;;;;21.77;15.55;;;6.90;83.30;;;6.04;69.64;95970.50;5054846;28;20195;-80
2021/12/15 00:18:46;;;;;;;23.45;15.23;;;6.90;83.40;;;6.00;69.89;95961.31;5070629;28;20195;-80
2021/12/15 00:21:19;;;;;;;22.67;16.23;;;6.90;83.40;;;6.05;69.66;95970.38;5036216;28;20285;-80
2021/12/15 00:23:47;;;;;;;23.08;16.10;;;6.90;83.40;;;6.03;70.21;95961.88;5036127;28;20479;-81
2021/12/15 00:26:16;;;;;;;23.30;15.68;;;6.90;83.40;;;6.03;69.89;95963.63;5036284;28;20228;-81
2021/12/15 00:28:45;;;;;;;23.15;15.80;;;6.90;83.30;;;6.05;69.85;95964.31;5053047;28;20196;-81
2021/12/15 00:31:14;;;;;;;20.63;14.57;;;6.90;83.30;;;6.02;69.72;95965.44;5052663;28;20692;-81
2021/12/15 00:33:43;;;;;;;25.27;15.55;;;6.90;83.40;;;6.01;70.01;95958.56;5036299;28;20199;-81
2021/12/15 00:36:12;;;;;;;21.33;15.23;;;7.00;83.40;;;6.00;69.47;95961.31;5020122;28;20204;-79
2021/12/15 00:38:40;;;;;;;23.10;15.48;;;6.90;83.40;;;6.03;70.02;95969.69;5035839;28;20274;-80
2021/12/15 00:41:08;;;;;;;23.50;16.08;;;6.90;83.40;;;6.01;69.76;95960.38;5018972;28;20195;-81
2021/12/15 00:43:37;;;;;;;24.70;16.08;;;7.00;83.40;;;6.00;69.93;95962.13;5022008;28;20247;-81
2021/12/15 00:46:06;;;;;;;21.45;15.63;;;6.80;83.30;;;6.02;69.88;95965.44;5037672;28;20318;-81
2021/12/15 00:48:35;;;;;;;22.27;15.48;;;6.90;83.40;;;6.00;69.76;95964.72;5037730;28;20204;-81
2021/12/15 00:51:03;;;;;;;25.88;17.15;;;6.90;83.40;;;5.99;69.59;95967.47;5021638;28;20212;-80
2021/12/15 00:53:30;;;;;;;23.63;16.08;;;6.90;83.40;;;5.99;69.92;95964.88;5037755;28;20664;-81
2021/12/15 00:55:58;;;;;;;22.45;15.77;;;6.80;83.30;;;5.95;69.81;95961.69;5054370;28;20651;-80
2021/12/15 00:58:26;;;;;;;22.75;15.88;;;6.80;83.40;;;5.99;69.99;95972.69;5037367;28;20353;-80
2021/12/15 01:00:58;;;;;;;23.60;15.07;;;6.90;83.40;;;5.98;69.84;95973.63;5053761;28;20222;-81
2021/12/15 01:03:27;;;;;;;27.05;16.67;;;6.80;83.30;;;5.97;70.13;95967.59;5054330;28;20642;-81
2021/12/15 01:06:06;;;;;;;32.17;18.55;;;6.80;83.40;;;5.96;69.78;95960.75;5053751;28;20238;-80
2021/12/15 01:08:52;;;;;;;26.83;16.95;;;6.80;83.40;;;5.97;69.93;95967.59;5037650;28;20239;-81
2021/12/15 01:19:59;;;;;;;26.73;16.63;;;6.80;83.40;;;5.92;70.09;95988.03;5067486;28;20521;-80
2021/12/15 01:22:33;;;;;;;26.40;15.38;;;6.80;83.40;;;5.94;70.02;95986.09;5037372;28;20279;-80
2021/12/15 01:25:23;;;;;;;26.65;16.50;;;6.80;83.40;;;5.90;69.99;95985.53;5037249;28;20290;-81
2021/12/15 01:27:52;;;;;;;25.05;15.60;;;6.80;83.40;;;5.95;69.94;95992.13;5020763;28;20273;-81
2021/12/15 01:30:26;;;;;;;23.65;15.13;;;6.80;83.40;;;5.97;69.91;95992.78;5036479;28;20239;-80
2021/12/15 01:32:56;;;;;;;30.75;17.67;;;6.80;83.40;;;5.96;70.05;95993.75;5069982;28;20704;-80
2021/12/15 01:35:23;;;;;;;27.48;16.77;;;6.80;83.40;;;5.93;69.89;95995.69;5036508;28;20232;-80
2021/12/15 01:37:52;;;;;;;34.05;16.30;;;6.80;83.40;;;5.93;69.92;95998.28;5037294;28;20281;-81
2021/12/15 01:40:33;;;;;;;28.90;17.30;;;6.80;83.40;;;5.89;70.00;95990.88;5036822;28;20216;-80
2021/12/15 01:43:27;;;;;;;26.10;16.50;;;6.80;83.40;;;5.91;69.72;95997.59;5053844;28;20210;-80
2021/12/15 01:49:12;;;;;;;26.50;16.73;;;6.80;83.40;;;5.84;70.09;95993.06;5038293;28;20633;-81
2021/12/15 01:51:40;;;;;;;24.52;15.27;;;6.80;83.40;;;5.86;70.12;95999.78;5037011;28;20250;-81
2021/12/15 01:54:07;;;;;;;26.85;15.82;;;6.80;83.40;;;5.84;69.92;95996.50;5036626;28;20315;-80
2021/12/15 01:56:35;;;;;;;23.90;14.45;;;6.70;83.40;;;5.87;69.84;95998.00;5037067;28;20541;-81
2021/12/15 01:59:04;;;;;;;20.88;13.52;;;6.70;83.40;;;5.86;69.99;95997.19;5020080;28;20220;-81
2021/12/15 02:01:32;;;;;;;24.67;15.02;;;6.70;83.50;;;5.88;69.91;96002.25;5036035;28;20546;-81
2021/12/15 02:04:01;;;;;;;24.45;15.93;;;6.70;83.40;;;5.86;70.13;96004.16;5032411;28;20189;-80
2021/12/15 02:06:41;;;;;;;25.40;16.30;;;6.80;83.50;;;5.85;70.18;96002.53;5050715;28;20225;-81
2021/12/15 02:09:14;;;;;;;25.95;15.52;;;6.70;83.40;;;5.84;69.93;96001.69;5053429;28;20601;-81
2021/12/15 02:11:41;;;;;;;25.77;16.63;;;6.70;83.40;;;5.80;70.10;95996.88;5020255;28;20245;-81
2021/12/15 02:14:11;;;;;;;23.85;15.15;;;6.70;83.40;;;5.79;70.20;95996.06;5020072;28;20227;-80
2021/12/15 02:16:38;;;;;;;24.73;15.77;;;6.70;83.40;;;5.81;70.27;96001.16;5052534;28;20287;-80
2021/12/15 02:19:06;;;;;;;25.08;16.10;;;6.70;83.50;;;5.79;70.05;95995.28;5052642;28;20208;-80
2021/12/15 02:21:33;;;;;;;24.60;16.00;;;6.70;83.50;;;5.77;70.00;96000.59;5035708;28;20196;-81
2021/12/15 02:24:01;;;;;;;26.95;17.15;;;6.70;83.40;;;5.73;70.37;96002.63;5052556;28;20781;-81
2021/12/15 02:26:36;;;;;;;22.65;15.32;;;6.70;83.50;;;5.75;69.99;96013.75;5036290;28;20227;-81
2021/12/15 02:29:13;;;;;;;27.38;17.48;;;6.70;83.50;;;5.74;70.19;96012.09;5036356;28;20700;-81
2021/12/15 02:32:04;;;;;;;29.67;17.75;;;6.70;83.50;;;5.73;70.09;96015.66;5035069;28;20532;-81
2021/12/15 02:34:54;;;;;;;26.98;17.67;;;6.70;83.50;;;5.70;70.44;96013.34;5038565;28;20224;-80
2021/12/15 02:37:24;;;;;;;28.73;18.48;;;6.70;83.50;;;5.68;70.76;96019.63;5038619;28;20208;-81
2021/12/15 02:40:06;;;;;;;29.25;18.33;;;6.70;83.60;;;5.65;70.57;96012.91;5035519;28;20560;-80
2021/12/15 02:42:39;;;;;;;31.00;19.23;;;6.70;83.60;;;5.61;70.80;96017.56;5052490;28;20661;-80
2021/12/15 02:45:12;;;;;;;28.75;18.13;;;6.60;83.60;;;5.60;70.62;96022.88;5052334;28;20677;-80
2021/12/15 02:47:40;;;;;;;34.20;18.88;;;6.60;83.60;;;5.60;71.16;96021.13;5035664;28;20709;-80
2021/12/15 02:50:14;;;;;;;33.55;19.50;;;6.60;83.70;;;5.57;70.70;96017.97;5035143;28;20348;-80
2021/12/15 02:52:42;;;;;;;32.83;18.67;;;6.60;83.80;;;5.58;71.04;96024.81;5051743;28;20200;-81
2021/12/15 02:55:12;;;;;;;30.15;17.63;;;6.60;83.80;;;5.58;71.26;96030.03;5051988;28;20220;-80
2021/12/15 02:57:39;;;;;;;32.67;18.15;;;6.60;83.80;;;5.60;71.29;96030.69;5052008;28;20192;-80
2021/12/15 03:00:25;;;;;;;35.70;18.02;;;6.50;83.90;;;5.54;71.32;96024.25;5052185;28;20219;-81
2021/12/15 03:05:39;;;;;;;28.67;17.23;;;6.50;83.90;;;5.58;71.19;96028.22;5052367;28;20314;-80
2021/12/15 03:08:17;;;;;;;29.58;17.00;;;6.50;83.90;;;5.60;71.17;96026.31;5035609;28;20281;-81
2021/12/15 03:16:26;;;;;;;38.50;19.65;;;6.50;83.90;;;5.54;71.36;96032.06;5051454;28;20208;-80
2021/12/15 03:18:58;;;;;;;27.95;17.52;;;6.60;84.00;;;5.58;71.21;96036.03;5048751;28;20220;-80
2021/12/15 03:21:27;;;;;;;31.40;18.90;;;6.50;84.00;;;5.51;71.29;96032.31;5034065;28;20212;-80
2021/12/15 03:24:11;;;;;;;35.72;19.67;;;6.50;84.80;;;5.57;71.03;96037.00;5034810;28;20191;-80
2021/12/15 03:26:48;;;;;;;33.90;18.65;;;6.50;84.10;;;5.58;71.33;96043.03;5051297;28;20254;-79
2021/12/15 03:37:37;;;;;;;35.33;20.58;;;6.50;84.10;;;5.53;71.20;96047.78;5064582;28;20249;-80
2021/12/15 03:40:23;;;;;;;38.83;20.95;;;6.50;84.10;;;5.51;71.19;96044.50;5034400;28;20469;-79
2021/12/15 03:43:02;;;;;;;34.88;19.20;;;6.50;84.20;;;5.47;71.36;96038.75;5034232;28;20523;-80
2021/12/15 03:45:38;;;;;;;36.85;20.55;;;6.50;84.20;;;5.45;71.34;96041.47;5026709;28;20311;-80
2021/12/15 03:48:13;;;;;;;38.40;22.58;;;6.50;84.20;;;5.48;71.32;96048.22;5038125;28;20201;-80
2021/12/15 03:50:43;;;;;;;42.38;22.30;;;6.50;84.30;;;5.44;71.87;96047.66;5045538;28;20593;-79
2021/12/15 03:53:12;;;;;;;38.38;22.73;;;6.50;84.30;;;5.44;71.96;96055.44;5056630;28;20196;-80
2021/12/15 03:55:41;;;;;;;34.55;21.30;;;6.50;84.40;;;5.46;71.90;96050.13;5048539;28;20353;-80
2021/12/15 03:58:12;;;;;;;41.20;20.27;;;6.50;84.40;;;5.52;71.63;96053.97;5067504;28;20195;-79
2021/12/15 04:01:05;;;;;;;36.33;19.15;;;6.50;84.40;;;5.53;71.18;96051.22;5043921;28;20212;-80
2021/12/15 04:03:54;;;;;;;33.90;20.25;;;6.40;84.30;;;5.55;71.44;96059.72;5062699;28;20282;-80
2021/12/15 04:06:29;;;;;;;30.23;19.23;;;6.50;84.30;;;5.56;71.54;96052.75;5053494;28;20220;-81
2021/12/15 04:08:57;;;;;;;33.17;18.25;;;6.50;84.30;;;5.53;71.53;96059.03;5042929;28;20215;-80
2021/12/15 04:11:33;;;;;;;26.15;17.38;;;6.50;84.30;;;5.56;71.39;96058.75;5029587;28;20442;-80
2021/12/15 04:14:12;;;;;;;29.02;18.42;;;6.50;84.30;;;5.52;71.18;96054.78;5024400;28;20215;-81
2021/12/15 04:16:46;;;;;;;29.83;17.63;;;6.50;84.20;;;5.57;71.24;96067.41;5062907;28;20283;-81
2021/12/15 04:19:19;;;;;;;27.38;17.52;;;6.60;84.40;;;5.59;71.15;96062.88;5043017;28;20220;-80
2021/12/15 04:21:47;;;;;;;30.00;17.70;;;6.50;84.30;;;5.58;71.34;96063.84;5020914;28;20191;-81
2021/12/15 04:24:17;;;;;;;29.25;17.65;;;6.50;84.30;;;5.58;71.22;96069.88;5029874;28;20223;-79
2021/12/15 04:26:50;;;;;;;28.92;18.23;;;6.50;84.20;;;5.54;71.46;96062.44;5038887;28;20227;-80
2021/12/15 04:29:17;;;;;;;30.25;18.05;;;6.50;84.20;;;5.58;71.25;96069.88;5056235;28;20645;-80
2021/12/15 04:31:59;;;;;;;26.75;17.30;;;6.60;84.30;;;5.59;71.13;96068.91;5029013;28;20242;-80
2021/12/15 04:34:27;;;;;;;29.60;18.20;;;6.50;84.20;;;5.57;71.57;96063.00;5043879;28;20251;-80
2021/12/15 04:36:54;;;;;;;29.00;18.58;;;6.50;84.30;;;5.55;71.49;96072.72;5017630;28;20688;-79
2021/12/15 04:39:25;;;;;;;29.35;18.58;;;6.50;84.30;;;5.55;71.39;96064.91;5032001;28;20310;-80
2021/12/15 04:41:54;;;;;;;26.55;17.10;;;6.50;84.30;;;5.57;71.12;96064.81;5012644;28;20302;-80
2021/12/15 04:44:26;;;;;;;24.73;16.30;;;6.50;84.30;;;5.52;71.53;96067.00;5035232;28;20216;-80
2021/12/15 04:47:01;;;;;;;23.40;15.20;;;6.50;84.30;;;5.57;71.42;96075.22;5032565;28;20246;-81
2021/12/15 04:49:35;;;;;;;27.00;17.15;;;6.50;84.30;;;5.56;70.92;96078.78;5015655;28;20250;-81
2021/12/15 04:52:04;;;;;;;24.20;15.40;;;6.50;84.30;;;5.58;71.40;96080.28;5032074;28;20180;-81
2021/12/15 04:54:31;;;;;;;28.42;17.58;;;6.50;84.30;;;5.54;71.47;96081.50;5035055;28;20212;-80
2021/12/15 04:56:59;;;;;;;26.27;16.67;;;6.50;84.30;;;5.58;71.17;96088.09;5037755;28;20200;-81
2021/12/15 04:59:26;;;;;;;27.83;17.23;;;6.50;84.30;;;5.50;71.46;96084.50;5018107;28;20590;-80
2021/12/15 05:01:54;;;;;;;29.67;18.52;;;6.50;84.30;;;5.58;71.43;96093.28;5052547;28;20666;-81
2021/12/15 05:04:22;;;;;;;26.40;17.30;;;6.50;84.30;;;5.58;71.51;96095.09;5037288;28;20223;-80
2021/12/15 05:06:50;;;;;;;26.30;16.15;;;6.50;84.30;;;5.60;71.32;96101.81;5037374;28;20309;-81
2021/12/15 05:09:18;;;;;;;26.15;16.33;;;6.50;84.40;;;5.60;71.09;96096.59;5054308;28;20216;-81
2021/12/15 05:11:49;;;;;;;24.38;16.17;;;6.50;84.30;;;5.61;71.20;96105.22;5037120;28;20632;-81
2021/12/15 05:14:18;;;;;;;23.85;15.60;;;6.50;84.30;;;5.57;71.18;96104.66;5037691;28;20254;-81
2021/12/15 05:16:46;;;;;;;26.50;16.88;;;6.50;84.30;;;5.60;71.06;96101.81;5037785;28;20200;-81
2021/12/15 05:19:14;;;;;;;26.55;17.67;;;6.50;84.30;;;5.62;71.18;96106.88;5053551;28;20247;-80
2021/12/15 05:21:41;;;;;;;26.10;16.45;;;6.50;84.30;;;5.65;71.39;96109.22;5047472;28;20208;-81
2021/12/15 05:24:22;;;;;;;23.50;16.35;;;6.50;84.40;;;5.64;71.34;96098.91;5023177;28;20219;-81
2021/12/15 05:26:50;;;;;;;24.55;15.32;;;6.50;84.30;;;5.65;71.03;96106.63;5035166;28;20231;-81
2021/12/15 05:29:20;;;;;;;23.90;15.35;;;6.50;84.30;;;5.66;70.99;96110.84;5033930;28;20307;-81
2021/12/15 05:31:48;;;;;;;23.17;15.02;;;6.60;84.40;;;5.65;71.03;96114.44;5023776;28;20646;-81
2021/12/15 05:34:16;;;;;;;25.73;16.55;;;6.50;84.20;;;5.61;71.46;96103.47;5035232;28;20477;-81
2021/12/15 05:36:44;;;;;;;23.75;15.50;;;6.50;84.20;;;5.65;71.04;96108.38;5037028;28;20250;-81
2021/12/15 05:39:11;;;;;;;22.55;15.13;;;6.60;84.30;;;5.63;71.22;96107.69;5037319;28;20588;-81
2021/12/15 05:41:39;;;;;;;24.15;15.23;;;6.50;84.30;;;5.61;71.44;96103.47;5052991;28;20223;-80
2021/12/15 05:44:08;;;;;;;24.33;16.20;;;6.50;84.20;;;5.61;71.24;96106.06;5037273;28;20601;-81
2021/12/15 05:46:35;;;;;;;23.73;14.75;;;6.50;84.30;;;5.64;71.25;96110.19;5016818;28;20196;-80
2021/12/15 05:49:04;;;;;;;29.85;19.30;;;6.50;84.30;;;5.59;71.47;96120.13;5033562;28;20623;-81
2021/12/15 05:51:33;;;;;;;25.77;17.20;;;6.60;84.40;;;5.53;71.31;96113.69;5044034;28;20279;-81
2021/12/15 05:54:00;;;;;;;27.17;17.48;;;6.50;84.30;;;5.61;71.34;96126.03;5036887;28;20235;-80
2021/12/15 05:56:27;;;;;;;32.35;19.80;;;6.50;84.30;;;5.60;71.27;96130.44;5039180;28;20203;-81
2021/12/15 05:58:54;;;;;;;32.97;19.65;;;6.50;84.30;;;5.58;71.43;96129.72;5017155;28;20678;-80
2021/12/15 06:01:22;;;;;;;31.80;18.77;;;6.50;84.20;;;5.57;71.51;96124.66;5045313;28;20188;-81
2021/12/15 06:03:50;;;;;;;33.15;20.20;;;6.50;84.20;;;5.57;71.41;96133.28;5026816;28;20280;-80
2021/12/15 06:06:17;;;;;;;29.25;19.48;;;6.50;84.20;;;5.53;71.42;96131.91;5015639;28;20195;-79
2021/12/15 06:08:45;;;;;;;29.67;18.35;;;6.50;84.20;;;5.51;71.26;96131.19;5017519;28;20697;-81
2021/12/15 06:11:12;;;;;;;25.20;16.85;;;6.50;84.20;;;5.52;71.42;96145.06;5034715;28;20215;-81
2021/12/15 06:13:40;;;;;;;24.65;16.73;;;6.50;84.20;;;5.51;71.29;96141.59;5052793;28;20662;-81
2021/12/15 06:16:07;;;;;;;25.58;16.75;;;6.50;84.20;;;5.51;71.14;96143.41;5034957;28;20196;-81
2021/12/15 06:18:34;;;;;;;24.67;16.30;;;6.50;84.20;;;5.52;71.24;96148.47;5036140;28;20200;-81
2021/12/15 06:21:02;;;;;;;25.98;16.60;;;6.50;84.30;;;5.50;71.50;96158.16;5052592;28;20212;-81
2021/12/15 06:23:30;;;;;;;24.20;16.17;;;6.50;84.30;;;5.50;71.37;96154.75;5036112;28;20596;-81
2021/12/15 06:26:01;;;;;;;24.40;16.00;;;6.50;84.30;;;5.50;71.49;96163.38;5036545;28;20311;-81
2021/12/15 06:28:34;;;;;;;23.25;15.90;;;6.50;84.30;;;5.51;71.35;96161.63;5036678;28;20288;-81
2021/12/15 06:31:01;;;;;;;23.70;15.68;;;6.50;84.30;;;5.49;71.08;96169.53;5052200;28;20224;-83
2021/12/15 06:33:29;;;;;;;21.92;15.02;;;6.40;84.10;;;5.50;71.33;96167.78;5019826;28;20196;-81
2021/12/15 06:35:58;;;;;;;20.17;13.60;;;6.40;84.10;;;5.49;71.13;96166.13;5036263;28;20238;-81
2021/12/15 06:38:37;;;;;;;21.88;14.85;;;6.40;84.20;;;5.46;70.79;96162.00;5052168;28;20196;-80
2021/12/15 06:41:07;;;;;;;24.40;15.98;;;6.50;84.20;;;5.42;71.35;96163.19;5035828;28;20314;-81
2021/12/15 06:43:36;;;;;;;20.77;14.10;;;6.40;84.20;;;5.50;71.40;96170.38;5052256;28;20279;-81
2021/12/15 06:59:54;;;;;;;23.63;14.40;;;6.40;84.30;;;5.52;71.41;96197.91;5052046;28;20720;-81
2021/12/15 07:02:21;;;;;;;21.75;14.27;;;6.40;84.30;;;5.56;71.28;96195.88;5052055;28;20657;-82
2021/12/15 07:04:48;;;;;;;21.50;14.20;;;6.40;84.40;;;5.57;71.43;96200.13;5035921;28;20212;-80
2021/12/15 07:07:16;;;;;;;23.83;15.05;;;6.40;84.40;;;5.58;71.30;96201.78;5019066;28;20254;-81
2021/12/15 07:09:43;;;;;;;20.92;14.38;;;6.50;84.50;;;5.60;71.49;96198.09;5052167;28;20212;-81
2021/12/15 07:12:11;;;;;;;20.58;13.35;;;6.50;84.50;;;5.65;71.42;96199.47;5034953;28;20907;-80
2021/12/15 07:14:38;;;;;;;24.35;15.27;;;6.60;84.60;;;5.64;71.34;96196.06;5035511;28;20269;-81
2021/12/15 07:17:10;;;;;;;26.00;15.73;;;6.50;84.60;;;5.69;71.22;96196.50;5019047;28;20630;-81
2021/12/15 07:20:06;;;;;;;23.63;14.98;;;6.60;84.60;;;5.68;71.40;96200.06;5019773;28;20226;-81
2021/12/15 07:22:32;;;;;;;24.38;15.80;;;6.60;85.40;;;5.70;71.43;96203.34;5037494;28;20227;-81
2021/12/15 07:25:04;;;;;;;23.08;15.15;;;6.50;84.60;;;5.68;71.29;96199.25;5036405;28;20268;-80
2021/12/15 07:27:31;;;;;;;22.67;15.13;;;6.60;84.60;;;5.75;71.44;96209.00;5034771;28;20211;-81
2021/12/15 07:30:00;;;;;;;25.23;16.58;;;6.60;84.60;;;5.75;71.13;96213.38;5035151;28;20219;-80
2021/12/15 07:32:28;;;;;;;24.50;15.88;;;6.60;84.60;;;5.75;71.39;96213.38;5051717;28;20207;-80
2021/12/15 07:34:55;;;;;;;23.58;15.63;;;6.70;84.60;;;5.79;71.27;96230.38;5051392;28;20299;-80
2021/12/15 07:37:22;;;;;;;23.88;15.35;;;6.70;84.60;;;5.79;71.47;96222.56;5018707;28;20812;-81
2021/12/15 07:39:58;;;;;;;24.83;16.15;;;6.60;84.60;;;5.77;71.25;96232.28;5034958;28;20724;-81
2021/12/15 07:42:43;;;;;;;23.70;14.80;;;6.70;84.60;;;5.77;71.36;96234.88;5036032;28;20202;-81
2021/12/15 07:45:20;;;;;;;24.40;15.63;;;6.70;84.60;;;5.72;71.27;96221.44;5055278;28;20211;-81
2021/12/15 07:47:47;;;;;;;25.88;15.88;;;6.70;84.60;;;5.75;71.48;96232.44;5035392;28;20215;-81
2021/12/15 07:50:15;;;;;;;24.42;15.80;;;6.70;84.60;;;5.77;71.56;96229.69;5018372;28;20252;-81
2021/12/15 07:52:42;;;;;;;23.92;14.65;;;6.70;84.60;;;5.81;71.43;96240.66;5034887;28;20635;-81
2021/12/15 07:55:12;;;;;;;22.25;14.57;;;6.70;84.70;;;5.84;71.29;96243.03;5018039;28;20251;-80
2021/12/15 07:57:39;;;;;;;23.52;14.95;;;6.70;84.70;;;5.79;71.50;96243.41;5034647;28;20322;-81
2021/12/15 08:00:09;;;;;;;24.20;15.10;;;6.70;84.70;;;5.87;71.31;96253.16;5034450;28;20216;-81
2021/12/15 08:02:38;;;;;;;25.08;14.77;;;6.70;84.70;;;5.87;71.59;96250.56;5051239;28;20238;-82
2021/12/15 08:05:07;;;;;;;23.13;14.65;;;6.80;84.80;;;5.90;71.57;96253.72;5050881;28;20212;-80
2021/12/15 08:07:35;;;;;;;24.58;14.73;;;6.70;84.80;;;5.92;71.69;96266.66;5034551;28;20285;-80
2021/12/15 08:10:08;;;;;;;24.92;15.52;;;6.80;84.90;;;5.97;71.61;96266.22;5033536;28;20322;-79
2021/12/15 08:12:36;;;;;;;21.42;14.55;;;6.80;84.90;;;6.01;71.75;96265.88;5034630;28;20640;-81
2021/12/15 08:15:07;;;;;;;23.42;14.85;;;6.80;84.90;;;6.03;71.76;96260.53;5030791;28;20720;-81
2021/12/15 08:17:38;;;;;;;21.35;14.52;;;6.80;84.90;;;6.06;71.49;96270.72;5031239;28;20200;-79
2021/12/15 08:20:11;;;;;;;23.98;14.02;;;6.90;85.00;;;6.08;71.37;96266.19;5016078;28;20212;-80
2021/12/15 08:22:41;;;;;;;19.98;12.82;;;6.90;85.70;;;6.16;71.63;96274.16;5050841;28;20654;-80
2021/12/15 08:25:16;;;;;;;23.98;15.52;;;7.00;85.00;;;6.19;71.39;96273.09;5034005;28;20234;-80
2021/12/15 08:27:44;;;;;;;23.90;13.77;;;7.00;84.90;;;6.20;71.43;96275.56;5051009;28;20588;-80
2021/12/15 08:30:20;;;;;;;24.17;15.00;;;7.00;85.00;;;6.21;71.36;96273.78;5038110;28;20212;-80
2021/12/15 08:32:52;;;;;;;25.52;15.38;;;7.00;85.00;;;6.24;71.35;96273.53;5038755;28;20660;-81
2021/12/15 08:35:24;;;;;;;23.15;15.45;;;7.00;84.80;;;6.22;71.49;96271.03;5038389;28;20637;-80
2021/12/15 08:37:52;;;;;;;23.13;14.55;;;7.00;85.00;;;6.30;71.58;96275.63;5037998;28;20219;-80
2021/12/15 08:40:21;;;;;;;24.20;15.30;;;7.10;85.00;;;6.32;71.57;96270.25;5053234;28;20307;-81
2021/12/15 08:42:51;;;;;;;24.65;15.93;;;7.10;85.00;;;6.37;71.81;96286.31;5054699;28;20196;-81
2021/12/15 08:45:19;;;;;;;25.50;15.38;;;7.20;85.10;;;6.39;71.53;96287.84;5034634;28;20209;-81
2021/12/15 08:47:47;;;;;;;25.27;15.27;;;7.20;85.10;;;6.45;71.78;96290.91;5078782;28;20246;-81
2021/12/15 08:50:20;;;;;;;23.77;15.02;;;7.20;85.10;;;6.45;71.41;96290.91;5070553;28;20247;-81
2021/12/15 08:52:47;;;;;;;23.20;15.07;;;7.30;85.10;;;6.49;71.25;96290.47;5037591;28;20185;-80
2021/12/15 08:55:14;;;;;;;21.90;13.60;;;7.30;85.10;;;6.52;71.46;96295.44;5037743;28;20664;-81
2021/12/15 08:57:48;;;;;;;21.73;13.48;;;7.30;85.10;;;6.57;71.35;96295.88;5021127;28;20257;-81
2021/12/15 09:00:19;;;;;;;20.40;13.30;;;7.30;85.10;;;6.63;71.41;96293.69;5037722;28;20298;-81
2021/12/15 09:02:46;;;;;;;22.40;14.18;;;7.40;85.00;;;6.66;71.29;96304.66;5037687;28;20654;-81
2021/12/15 09:05:20;;;;;;;19.73;13.07;;;7.40;85.40;;;6.70;71.40;96306.06;5037390;28;20266;-81
2021/12/15 09:07:54;;;;;;;17.80;12.27;;;7.40;85.10;;;6.76;71.13;96303.88;5054842;28;20207;-81
2021/12/15 09:10:24;;;;;;;18.45;12.27;;;7.50;85.10;;;6.81;71.30;96306.91;5037561;28;20223;-81
2021/12/15 09:12:51;;;;;;;20.08;12.73;;;7.50;85.20;;;6.83;71.47;96302.38;5037875;28;20668;-81
2021/12/15 09:15:19;;;;;;;18.15;11.85;;;7.60;85.30;;;6.93;71.31;96310.22;5018664;28;20230;-80
2021/12/15 09:17:46;;;;;;;18.23;12.23;;;7.60;85.30;;;6.99;71.41;96307.91;5037402;28;20250;-81
2021/12/15 09:20:18;;;;;;;17.77;11.90;;;7.70;85.50;;;7.05;71.51;96309.16;5037183;28;20270;-81
2021/12/15 09:22:47;;;;;;;18.88;12.57;;;7.70;85.40;;;7.08;71.28;96305.44;5037675;28;20196;-80
2021/12/15 09:25:15;;;;;;;19.52;12.52;;;7.70;85.30;;;7.07;71.01;96296.81;5036584;28;20289;-81
2021/12/15 09:27:44;;;;;;;17.10;11.98;;;7.80;85.30;;;7.09;71.31;96287.03;5037507;28;20261;-81
2021/12/15 09:30:19;;;;;;;18.00;12.02;;;7.80;85.30;;;7.21;70.83;96314.69;5036466;28;20220;-80
2021/12/15 09:32:48;;;;;;;19.50;12.30;;;7.90;86.00;;;7.24;70.94;96305.75;5036190;28;20657;-81
2021/12/15 09:35:18;;;;;;;19.52;12.85;;;7.90;85.20;;;7.26;70.76;96301.19;5053488;28;20304;-81
2021/12/15 09:37:46;;;;;;;18.13;11.55;;;8.00;85.00;;;7.28;70.49;96299.28;5053614;28;20199;-80
2021/12/15 09:40:17;;;;;;;16.70;11.43;;;8.00;84.90;;;7.27;70.83;96302.03;5018940;28;20222;-81
2021/12/15 09:42:45;;;;;;;17.80;11.65;;;8.00;84.80;;;7.27;70.34;96299.44;5040992;28;20207;-81
2021/12/15 10:04:54;;;;;;;17.30;12.20;;;8.00;84.20;;;7.02;70.64;96289.38;5038251;28;20310;-80
2021/12/15 10:10:41;;;;;;;16.48;11.40;;;8.00;84.20;;;6.98;70.66;96268.91;5036568;28;20707;-82
2021/12/15 10:10:45;;;;;;;16.55;11.25;;;7.90;84.50;;;7.05;70.67;96270.88;5034930;28;20331;-80
2021/12/15 10:19:37;;;;;;;17.67;11.40;;;8.00;84.70;;;7.28;71.05;96283.63;5032612;28;20225;-80
2021/12/15 10:22:25;;;;;;;16.27;11.18;;;8.00;84.90;;;7.32;70.70;96271.97;5033449;28;20208;-81
2021/12/15 10:25:08;;;;;;;15.40;11.18;;;8.10;84.90;;;7.41;70.59;96278.16;5035737;28;20240;-81
2021/12/15 10:27:40;;;;;;;15.43;11.23;;;8.20;84.80;;;7.41;70.39;96272.91;5035084;28;20287;-81
2021/12/15 10:30:39;;;;;;;17.90;11.75;;;8.20;84.70;;;7.43;70.10;96270.16;5051327;28;20255;-80
2021/12/15 10:33:22;;;;;;;15.95;11.52;;;8.20;84.40;;;7.44;70.03;96254.34;5036194;28;20256;-81
2021/12/15 10:36:10;;;;;;;16.70;11.85;;;8.20;84.30;;;7.45;69.98;96263.03;5020126;28;20223;-83
2021/12/15 10:38:47;;;;;;;16.08;10.70;;;8.30;84.10;;;7.49;69.97;96264.38;5020254;28;20218;-81
2021/12/15 10:41:38;;;;;;;16.02;10.00;;;8.20;84.10;;;7.53;70.32;96265.75;5051691;28;20206;-81
2021/12/15 10:44:09;;;;;;;15.43;10.38;;;8.30;84.20;;;7.55;70.11;96261.22;5019976;28;20755;-81
2021/12/15 10:46:58;;;;;;;13.02;9.10;;;8.30;84.40;;;7.65;69.94;96269.88;5036235;28;20235;-81
2021/12/15 10:49:32;;;;;;;13.52;9.40;;;8.30;84.20;;;7.70;69.62;96256.38;5035349;28;20238;-81
2021/12/15 10:52:06;;;;;;;13.60;9.10;;;8.40;84.20;;;7.73;69.52;96257.91;5035624;28;20254;-82
2021/12/15 10:54:44;;;;;;;14.40;8.85;;;8.50;84.20;;;7.73;69.18;96256.13;5035730;28;20223;-81
2021/12/15 10:57:21;;;;;;;15.43;10.65;;;8.40;83.90;;;7.74;69.63;96249.09;5030754;28;20515;-82
2021/12/15 10:59:55;;;;;;;13.63;9.63;;;8.50;84.00;;;7.78;69.30;96246.06;5014685;28;20581;-81
2021/12/15 11:02:37;;;;;;;14.23;9.82;;;8.50;83.80;;;7.76;69.18;96239.34;5041791;28;20223;-81
2021/12/15 11:05:17;;;;;;;16.42;11.45;;;8.60;83.60;;;7.79;68.96;96236.44;5035068;28;20273;-82
2021/12/15 11:07:53;;;;;;;14.55;10.18;;;8.50;83.50;;;7.82;69.10;96244.00;5035044;28;20261;-81
2021/12/15 11:10:27;;;;;;;14.57;9.82;;;8.50;83.50;;;7.82;69.01;96244.84;5018209;28;20284;-80
2021/12/15 11:13:04;;;;;;;13.85;8.98;;;8.60;83.60;;;7.85;69.19;96234.09;5035500;28;20200;-82
2021/12/15 11:15:49;;;;;;;14.68;9.55;;;8.60;83.50;;;7.91;69.56;96227.47;5035671;28;20577;-81
2021/12/15 11:18:23;;;;;;;13.75;8.68;;;8.70;83.80;;;7.97;69.30;96220.84;5051340;28;20192;-81
2021/12/15 11:20:59;;;;;;;13.52;9.48;;;8.70;83.70;;;8.00;69.07;96221.38;5018679;28;20254;-82
2021/12/15 11:23:29;;;;;;;13.77;9.00;;;8.70;83.60;;;7.99;68.80;96206.66;5051907;28;20574;-80
2021/12/15 11:26:11;;;;;;;12.15;9.13;;;8.70;83.50;;;8.00;68.28;96210.13;5034694;28;20319;-82
2021/12/15 11:28:49;;;;;;;11.77;9.00;;;8.80;83.10;;;7.95;68.46;96202.69;5018682;28;20469;-81
2021/12/15 11:31:28;;;;;;;11.82;8.75;;;8.80;83.20;;;7.98;68.96;96206.81;5018292;28;20676;-80
2021/12/15 11:34:01;;;;;;;12.18;8.68;;;8.80;83.20;;;7.97;68.73;96202.56;5051681;28;20286;-81
2021/12/15 11:36:33;;;;;;;10.73;8.05;;;8.80;83.20;;;7.98;68.76;96201.59;5051515;28;20246;-81
2021/12/15 11:39:07;;;;;;;11.32;8.18;;;8.80;83.30;;;7.95;68.64;96202.69;5035160;28;20227;-81
2021/12/15 11:41:40;;;;;;;11.35;8.15;;;8.80;83.20;;;7.99;69.20;96200.63;5043117;28;20230;-80
2021/12/15 11:44:19;;;;;;;12.23;8.63;;;8.80;83.20;;;8.01;69.06;96189.06;5051709;28;20227;-82
2021/12/15 11:47:01;;;;;;;11.63;8.10;;;8.80;83.20;;;8.08;69.00;96205.00;5035071;28;20188;-81
2021/12/15 11:49:32;;;;;;;11.40;8.35;;;8.80;83.20;;;8.11;68.96;96198.66;5017558;28;20232;-80